sensor_id;sensor_type;location;lat;lon;timestamp;P1;durP1;ratioP1;P2;durP2;ratioP2
51810;SDS011;52468;40.116;18.296;2023-05-02T00:02:09;3.97;;;2.20;;
51810;SDS011;52468;40.116;18.296;2023-05-02T00:04:37;5.83;;;3.47;;
51810;SDS011;52468;40.116;18.296;2023-05-02T00:07:05;7.27;;;4.10;;
51810;SDS011;52468;40.116;18.296;2023-05-02T00:09:33;5.93;;;2.53;;
51810;SDS011;52468;40.116;18.296;2023-05-02T00:12:01;9.70;;;3.07;;
51810;SDS011;52468;40.116;18.296;2023-05-02T00:14:29;7.17;;;1.80;;
51810;SDS011;52468;40.116;18.296;2023-05-02T00:16:57;3.40;;;1.97;;
51810;SDS011;52468;40.116;18.296;2023-05-02T00:19:25;5.67;;;2.70;;
51810;SDS011;52468;40.116;18.296;2023-05-02T00:21:52;4.00;;;1.83;;
51810;SDS011;52468;40.116;18.296;2023-05-02T00:24:20;7.03;;;2.20;;
51810;SDS011;52468;40.116;18.296;2023-05-02T00:26:48;9.97;;;3.10;;
51810;SDS011;52468;40.116;18.296;2023-05-02T00:29:16;7.83;;;2.67;;
51810;SDS011;52468;40.116;18.296;2023-05-02T00:31:44;8.33;;;3.20;;
51810;SDS011;52468;40.116;18.296;2023-05-02T00:34:12;6.90;;;2.90;;
51810;SDS011;52468;40.116;18.296;2023-05-02T00:36:39;8.40;;;2.50;;
51810;SDS011;52468;40.116;18.296;2023-05-02T00:39:07;7.53;;;2.03;;
51810;SDS011;52468;40.116;18.296;2023-05-02T00:41:35;4.73;;;1.70;;
51810;SDS011;52468;40.116;18.296;2023-05-02T00:44:03;7.50;;;2.70;;
51810;SDS011;52468;40.116;18.296;2023-05-02T00:46:31;6.47;;;2.07;;
51810;SDS011;52468;40.116;18.296;2023-05-02T00:49:00;10.77;;;3.07;;
51810;SDS011;52468;40.116;18.296;2023-05-02T00:51:28;6.80;;;2.33;;
51810;SDS011;52468;40.116;18.296;2023-05-02T00:53:56;4.77;;;2.83;;
51810;SDS011;52468;40.116;18.296;2023-05-02T00:56:23;2.53;;;1.93;;
51810;SDS011;52468;40.116;18.296;2023-05-02T00:58:52;4.83;;;1.70;;
51810;SDS011;52468;40.116;18.296;2023-05-02T01:12:09;8.17;;;2.83;;
51810;SDS011;52468;40.116;18.296;2023-05-02T01:14:44;2.53;;;1.67;;
51810;SDS011;52468;40.116;18.296;2023-05-02T01:17:17;7.40;;;2.90;;
51810;SDS011;52468;40.116;18.296;2023-05-02T01:19:50;7.23;;;2.50;;
51810;SDS011;52468;40.116;18.296;2023-05-02T01:22:21;2.43;;;2.00;;
51810;SDS011;52468;40.116;18.296;2023-05-02T01:27:29;5.40;;;2.67;;
51810;SDS011;52468;40.116;18.296;2023-05-02T01:30:09;4.97;;;2.30;;
51810;SDS011;52468;40.116;18.296;2023-05-02T01:32:40;3.33;;;1.93;;
51810;SDS011;52468;40.116;18.296;2023-05-02T01:35:15;7.47;;;3.30;;
51810;SDS011;52468;40.116;18.296;2023-05-02T01:37:44;4.78;;;2.45;;
51810;SDS011;52468;40.116;18.296;2023-05-02T01:40:16;2.90;;;1.80;;
51810;SDS011;52468;40.116;18.296;2023-05-02T01:42:49;3.90;;;2.57;;
51810;SDS011;52468;40.116;18.296;2023-05-02T01:45:19;6.32;;;2.85;;
51810;SDS011;52468;40.116;18.296;2023-05-02T01:47:48;4.03;;;2.63;;
51810;SDS011;52468;40.116;18.296;2023-05-02T01:50:18;4.30;;;1.77;;
51810;SDS011;52468;40.116;18.296;2023-05-02T01:52:50;7.68;;;2.35;;
51810;SDS011;52468;40.116;18.296;2023-05-02T01:55:20;14.47;;;3.40;;
51810;SDS011;52468;40.116;18.296;2023-05-02T01:57:50;3.73;;;2.13;;
51810;SDS011;52468;40.116;18.296;2023-05-02T02:00:20;6.57;;;2.37;;
51810;SDS011;52468;40.116;18.296;2023-05-02T02:02:49;3.80;;;2.20;;
51810;SDS011;52468;40.116;18.296;2023-05-02T02:05:19;9.80;;;2.63;;
51810;SDS011;52468;40.116;18.296;2023-05-02T02:07:49;4.37;;;2.43;;
51810;SDS011;52468;40.116;18.296;2023-05-02T02:10:17;5.77;;;2.87;;
51810;SDS011;52468;40.116;18.296;2023-05-02T02:12:52;7.40;;;3.40;;
51810;SDS011;52468;40.116;18.296;2023-05-02T02:15:33;8.20;;;2.67;;
51810;SDS011;52468;40.116;18.296;2023-05-02T02:18:20;4.20;;;2.00;;
51810;SDS011;52468;40.116;18.296;2023-05-02T02:20:52;8.83;;;3.23;;
51810;SDS011;52468;40.116;18.296;2023-05-02T02:23:22;5.77;;;3.63;;
51810;SDS011;52468;40.116;18.296;2023-05-02T02:25:54;6.10;;;3.33;;
51810;SDS011;52468;40.116;18.296;2023-05-02T02:28:23;8.00;;;2.37;;
51810;SDS011;52468;40.116;18.296;2023-05-02T02:30:51;5.23;;;3.37;;
51810;SDS011;52468;40.116;18.296;2023-05-02T02:33:19;4.00;;;3.03;;
51810;SDS011;52468;40.116;18.296;2023-05-02T02:35:49;5.60;;;3.13;;
51810;SDS011;52468;40.116;18.296;2023-05-02T02:41:18;13.30;;;3.83;;
51810;SDS011;52468;40.116;18.296;2023-05-02T02:51:41;6.53;;;3.43;;
51810;SDS011;52468;40.116;18.296;2023-05-02T02:54:35;10.23;;;3.13;;
51810;SDS011;52468;40.116;18.296;2023-05-02T02:57:11;8.77;;;3.00;;
51810;SDS011;52468;40.116;18.296;2023-05-02T02:59:50;5.83;;;2.60;;
51810;SDS011;52468;40.116;18.296;2023-05-02T03:02:32;6.57;;;2.70;;
51810;SDS011;52468;40.116;18.296;2023-05-02T03:05:03;11.67;;;3.60;;
51810;SDS011;52468;40.116;18.296;2023-05-02T03:07:33;6.83;;;2.97;;
51810;SDS011;52468;40.116;18.296;2023-05-02T03:10:02;3.90;;;2.33;;
51810;SDS011;52468;40.116;18.296;2023-05-02T03:12:35;5.25;;;1.98;;
51810;SDS011;52468;40.116;18.296;2023-05-02T03:18:32;4.93;;;2.47;;
51810;SDS011;52468;40.116;18.296;2023-05-02T03:21:00;4.97;;;2.33;;
51810;SDS011;52468;40.116;18.296;2023-05-02T03:23:28;6.27;;;3.50;;
51810;SDS011;52468;40.116;18.296;2023-05-02T03:25:56;8.87;;;3.37;;
51810;SDS011;52468;40.116;18.296;2023-05-02T03:28:25;6.60;;;2.70;;
51810;SDS011;52468;40.116;18.296;2023-05-02T03:30:53;9.37;;;3.40;;
51810;SDS011;52468;40.116;18.296;2023-05-02T03:33:21;6.03;;;2.50;;
51810;SDS011;52468;40.116;18.296;2023-05-02T03:35:49;7.50;;;2.60;;
51810;SDS011;52468;40.116;18.296;2023-05-02T03:38:17;10.50;;;4.23;;
51810;SDS011;52468;40.116;18.296;2023-05-02T03:40:48;6.20;;;2.83;;
51810;SDS011;52468;40.116;18.296;2023-05-02T03:43:16;8.57;;;3.93;;
51810;SDS011;52468;40.116;18.296;2023-05-02T03:45:44;8.70;;;3.70;;
51810;SDS011;52468;40.116;18.296;2023-05-02T03:48:13;7.77;;;2.93;;
51810;SDS011;52468;40.116;18.296;2023-05-02T03:50:41;6.10;;;2.50;;
51810;SDS011;52468;40.116;18.296;2023-05-02T03:53:09;9.00;;;2.73;;
51810;SDS011;52468;40.116;18.296;2023-05-02T03:55:47;9.53;;;2.73;;
51810;SDS011;52468;40.116;18.296;2023-05-02T03:58:23;5.37;;;3.37;;
51810;SDS011;52468;40.116;18.296;2023-05-02T04:00:52;7.13;;;3.17;;
51810;SDS011;52468;40.116;18.296;2023-05-02T04:03:21;6.47;;;2.87;;
51810;SDS011;52468;40.116;18.296;2023-05-02T04:05:50;7.03;;;3.33;;
51810;SDS011;52468;40.116;18.296;2023-05-02T04:08:18;4.73;;;2.87;;
51810;SDS011;52468;40.116;18.296;2023-05-02T04:10:46;5.47;;;3.47;;
51810;SDS011;52468;40.116;18.296;2023-05-02T04:13:16;5.23;;;3.77;;
51810;SDS011;52468;40.116;18.296;2023-05-02T04:15:47;9.33;;;2.93;;
51810;SDS011;52468;40.116;18.296;2023-05-02T04:18:19;9.53;;;2.60;;
51810;SDS011;52468;40.116;18.296;2023-05-02T04:20:47;5.33;;;2.13;;
51810;SDS011;52468;40.116;18.296;2023-05-02T04:23:16;3.97;;;2.63;;
51810;SDS011;52468;40.116;18.296;2023-05-02T04:25:51;5.00;;;2.80;;
51810;SDS011;52468;40.116;18.296;2023-05-02T04:28:23;7.77;;;2.57;;
51810;SDS011;52468;40.116;18.296;2023-05-02T04:30:52;4.87;;;2.10;;
51810;SDS011;52468;40.116;18.296;2023-05-02T04:33:22;6.13;;;2.30;;
51810;SDS011;52468;40.116;18.296;2023-05-02T04:35:52;6.47;;;2.57;;
51810;SDS011;52468;40.116;18.296;2023-05-02T04:38:22;5.57;;;3.30;;
51810;SDS011;52468;40.116;18.296;2023-05-02T04:40:50;6.90;;;3.30;;
51810;SDS011;52468;40.116;18.296;2023-05-02T04:43:24;4.63;;;2.53;;
51810;SDS011;52468;40.116;18.296;2023-05-02T04:45:57;8.57;;;2.90;;
51810;SDS011;52468;40.116;18.296;2023-05-02T04:48:35;4.77;;;3.50;;
51810;SDS011;52468;40.116;18.296;2023-05-02T04:51:03;9.90;;;2.37;;
51810;SDS011;52468;40.116;18.296;2023-05-02T04:53:31;8.07;;;2.40;;
51810;SDS011;52468;40.116;18.296;2023-05-02T04:55:59;4.13;;;2.87;;
51810;SDS011;52468;40.116;18.296;2023-05-02T04:58:29;5.27;;;2.87;;
51810;SDS011;52468;40.116;18.296;2023-05-02T05:01:01;6.10;;;3.30;;
51810;SDS011;52468;40.116;18.296;2023-05-02T05:03:29;6.90;;;3.50;;
51810;SDS011;52468;40.116;18.296;2023-05-02T05:05:57;7.10;;;2.50;;
51810;SDS011;52468;40.116;18.296;2023-05-02T05:08:26;4.33;;;2.23;;
51810;SDS011;52468;40.116;18.296;2023-05-02T05:10:56;6.40;;;2.70;;
51810;SDS011;52468;40.116;18.296;2023-05-02T05:13:24;9.53;;;3.67;;
51810;SDS011;52468;40.116;18.296;2023-05-02T05:15:52;7.80;;;3.57;;
51810;SDS011;52468;40.116;18.296;2023-05-02T05:18:24;4.87;;;2.20;;
51810;SDS011;52468;40.116;18.296;2023-05-02T05:20:53;4.50;;;2.83;;
51810;SDS011;52468;40.116;18.296;2023-05-02T05:23:20;5.23;;;2.43;;
51810;SDS011;52468;40.116;18.296;2023-05-02T05:25:48;6.77;;;2.47;;
51810;SDS011;52468;40.116;18.296;2023-05-02T05:28:17;6.20;;;2.20;;
51810;SDS011;52468;40.116;18.296;2023-05-02T05:30:46;3.03;;;2.00;;
51810;SDS011;52468;40.116;18.296;2023-05-02T05:33:18;2.83;;;2.10;;
51810;SDS011;52468;40.116;18.296;2023-05-02T05:35:46;5.43;;;2.57;;
51810;SDS011;52468;40.116;18.296;2023-05-02T05:38:13;4.33;;;3.13;;
51810;SDS011;52468;40.116;18.296;2023-05-02T05:40:43;5.80;;;2.60;;
51810;SDS011;52468;40.116;18.296;2023-05-02T05:43:16;4.97;;;2.07;;
51810;SDS011;52468;40.116;18.296;2023-05-02T05:45:44;4.03;;;2.10;;
51810;SDS011;52468;40.116;18.296;2023-05-02T05:48:12;5.33;;;2.37;;
51810;SDS011;52468;40.116;18.296;2023-05-02T05:50:44;4.70;;;2.20;;
51810;SDS011;52468;40.116;18.296;2023-05-02T05:53:12;4.97;;;2.53;;
51810;SDS011;52468;40.116;18.296;2023-05-02T05:55:42;7.37;;;2.17;;
51810;SDS011;52468;40.116;18.296;2023-05-02T05:58:10;5.57;;;3.13;;
51810;SDS011;52468;40.116;18.296;2023-05-02T06:00:39;6.40;;;3.20;;
51810;SDS011;52468;40.116;18.296;2023-05-02T06:03:08;6.97;;;2.90;;
51810;SDS011;52468;40.116;18.296;2023-05-02T06:05:36;5.90;;;3.70;;
51810;SDS011;52468;40.116;18.296;2023-05-02T06:08:04;6.17;;;2.33;;
51810;SDS011;52468;40.116;18.296;2023-05-02T06:10:32;4.60;;;2.40;;
51810;SDS011;52468;40.116;18.296;2023-05-02T06:13:01;4.47;;;2.50;;
51810;SDS011;52468;40.116;18.296;2023-05-02T06:15:33;3.50;;;2.40;;
51810;SDS011;52468;40.116;18.296;2023-05-02T06:18:03;5.57;;;2.47;;
51810;SDS011;52468;40.116;18.296;2023-05-02T06:20:31;3.63;;;2.47;;
51810;SDS011;52468;40.116;18.296;2023-05-02T06:22:59;9.47;;;2.90;;
51810;SDS011;52468;40.116;18.296;2023-05-02T06:25:26;8.13;;;2.13;;
51810;SDS011;52468;40.116;18.296;2023-05-02T06:27:55;6.80;;;2.63;;
51810;SDS011;52468;40.116;18.296;2023-05-02T06:30:22;4.30;;;2.07;;
51810;SDS011;52468;40.116;18.296;2023-05-02T06:32:50;2.63;;;1.80;;
51810;SDS011;52468;40.116;18.296;2023-05-02T06:35:18;3.03;;;2.13;;
51810;SDS011;52468;40.116;18.296;2023-05-02T06:37:46;2.63;;;1.80;;
51810;SDS011;52468;40.116;18.296;2023-05-02T06:40:14;9.37;;;2.50;;
51810;SDS011;52468;40.116;18.296;2023-05-02T06:42:42;5.57;;;2.30;;
51810;SDS011;52468;40.116;18.296;2023-05-02T06:45:09;7.97;;;3.07;;
51810;SDS011;52468;40.116;18.296;2023-05-02T06:47:37;8.67;;;2.60;;
51810;SDS011;52468;40.116;18.296;2023-05-02T06:50:05;4.90;;;2.30;;
51810;SDS011;52468;40.116;18.296;2023-05-02T06:52:33;6.03;;;2.10;;
51810;SDS011;52468;40.116;18.296;2023-05-02T06:55:02;6.83;;;2.47;;
51810;SDS011;52468;40.116;18.296;2023-05-02T06:57:29;12.77;;;2.53;;
51810;SDS011;52468;40.116;18.296;2023-05-02T06:59:57;5.73;;;2.47;;
51810;SDS011;52468;40.116;18.296;2023-05-02T07:02:25;5.97;;;2.33;;
51810;SDS011;52468;40.116;18.296;2023-05-02T07:04:53;6.47;;;2.37;;
51810;SDS011;52468;40.116;18.296;2023-05-02T07:07:21;5.57;;;2.87;;
51810;SDS011;52468;40.116;18.296;2023-05-02T07:09:49;3.83;;;2.47;;
51810;SDS011;52468;40.116;18.296;2023-05-02T07:12:16;5.40;;;3.27;;
51810;SDS011;52468;40.116;18.296;2023-05-02T07:14:44;5.37;;;1.73;;
51810;SDS011;52468;40.116;18.296;2023-05-02T07:17:13;6.00;;;2.53;;
51810;SDS011;52468;40.116;18.296;2023-05-02T07:19:41;5.73;;;2.67;;
51810;SDS011;52468;40.116;18.296;2023-05-02T07:22:11;5.47;;;2.00;;
51810;SDS011;52468;40.116;18.296;2023-05-02T07:24:39;4.37;;;2.30;;
51810;SDS011;52468;40.116;18.296;2023-05-02T07:27:08;4.97;;;2.20;;
51810;SDS011;52468;40.116;18.296;2023-05-02T07:29:36;6.73;;;2.80;;
51810;SDS011;52468;40.116;18.296;2023-05-02T07:32:04;4.27;;;2.10;;
51810;SDS011;52468;40.116;18.296;2023-05-02T07:34:32;3.00;;;2.30;;
51810;SDS011;52468;40.116;18.296;2023-05-02T07:37:00;5.33;;;2.80;;
51810;SDS011;52468;40.116;18.296;2023-05-02T07:39:28;3.83;;;2.40;;
51810;SDS011;52468;40.116;18.296;2023-05-02T07:41:56;5.80;;;2.20;;
51810;SDS011;52468;40.116;18.296;2023-05-02T07:44:23;4.77;;;2.50;;
51810;SDS011;52468;40.116;18.296;2023-05-02T07:46:51;4.93;;;1.80;;
51810;SDS011;52468;40.116;18.296;2023-05-02T07:49:19;5.73;;;3.37;;
51810;SDS011;52468;40.116;18.296;2023-05-02T07:51:47;2.83;;;2.63;;
51810;SDS011;52468;40.116;18.296;2023-05-02T07:54:15;3.87;;;3.00;;
51810;SDS011;52468;40.116;18.296;2023-05-02T07:56:44;4.10;;;2.33;;
51810;SDS011;52468;40.116;18.296;2023-05-02T07:59:13;4.67;;;2.60;;
51810;SDS011;52468;40.116;18.296;2023-05-02T08:01:41;3.63;;;1.70;;
51810;SDS011;52468;40.116;18.296;2023-05-02T08:04:10;4.60;;;2.33;;
51810;SDS011;52468;40.116;18.296;2023-05-02T08:06:38;6.73;;;2.73;;
51810;SDS011;52468;40.116;18.296;2023-05-02T08:09:07;3.60;;;2.53;;
51810;SDS011;52468;40.116;18.296;2023-05-02T08:11:35;4.83;;;2.10;;
51810;SDS011;52468;40.116;18.296;2023-05-02T08:14:03;7.80;;;2.10;;
51810;SDS011;52468;40.116;18.296;2023-05-02T08:16:31;8.77;;;2.83;;
51810;SDS011;52468;40.116;18.296;2023-05-02T08:18:59;3.93;;;3.40;;
51810;SDS011;52468;40.116;18.296;2023-05-02T08:21:26;5.50;;;2.80;;
51810;SDS011;52468;40.116;18.296;2023-05-02T08:23:58;3.13;;;2.03;;
51810;SDS011;52468;40.116;18.296;2023-05-02T08:26:27;5.43;;;2.37;;
51810;SDS011;52468;40.116;18.296;2023-05-02T08:28:54;4.70;;;2.50;;
51810;SDS011;52468;40.116;18.296;2023-05-02T08:31:22;5.10;;;2.90;;
51810;SDS011;52468;40.116;18.296;2023-05-02T08:33:50;5.10;;;2.23;;
51810;SDS011;52468;40.116;18.296;2023-05-02T08:36:18;5.47;;;3.07;;
51810;SDS011;52468;40.116;18.296;2023-05-02T08:38:46;5.77;;;2.43;;
51810;SDS011;52468;40.116;18.296;2023-05-02T08:41:17;3.73;;;3.03;;
51810;SDS011;52468;40.116;18.296;2023-05-02T08:43:46;4.13;;;3.13;;
51810;SDS011;52468;40.116;18.296;2023-05-02T08:46:14;3.17;;;2.30;;
51810;SDS011;52468;40.116;18.296;2023-05-02T08:48:43;3.47;;;2.60;;
51810;SDS011;52468;40.116;18.296;2023-05-02T08:51:14;8.57;;;2.93;;
51810;SDS011;52468;40.116;18.296;2023-05-02T08:53:43;6.87;;;2.60;;
51810;SDS011;52468;40.116;18.296;2023-05-02T08:56:11;6.33;;;2.80;;
51810;SDS011;52468;40.116;18.296;2023-05-02T08:58:39;5.40;;;3.30;;
51810;SDS011;52468;40.116;18.296;2023-05-02T09:01:14;4.00;;;2.60;;
51810;SDS011;52468;40.116;18.296;2023-05-02T09:03:44;4.47;;;3.33;;
51810;SDS011;52468;40.116;18.296;2023-05-02T09:06:16;5.00;;;3.10;;
51810;SDS011;52468;40.116;18.296;2023-05-02T09:08:46;5.55;;;3.58;;
51810;SDS011;52468;40.116;18.296;2023-05-02T09:11:15;5.20;;;3.47;;
51810;SDS011;52468;40.116;18.296;2023-05-02T09:13:47;4.23;;;2.60;;
51810;SDS011;52468;40.116;18.296;2023-05-02T09:18:49;10.63;;;3.30;;
51810;SDS011;52468;40.116;18.296;2023-05-02T09:21:19;6.53;;;3.83;;
51810;SDS011;52468;40.116;18.296;2023-05-02T09:23:55;4.47;;;2.55;;
51810;SDS011;52468;40.116;18.296;2023-05-02T09:28:57;4.53;;;3.37;;
51810;SDS011;52468;40.116;18.296;2023-05-02T09:31:33;4.03;;;3.00;;
51810;SDS011;52468;40.116;18.296;2023-05-02T09:34:16;5.93;;;2.87;;
51810;SDS011;52468;40.116;18.296;2023-05-02T09:36:48;10.63;;;3.43;;
51810;SDS011;52468;40.116;18.296;2023-05-02T09:39:22;9.23;;;3.50;;
51810;SDS011;52468;40.116;18.296;2023-05-02T09:41:57;4.13;;;2.83;;
51810;SDS011;52468;40.116;18.296;2023-05-02T09:44:26;3.70;;;2.33;;
51810;SDS011;52468;40.116;18.296;2023-05-02T09:47:02;3.47;;;2.20;;
51810;SDS011;52468;40.116;18.296;2023-05-02T09:52:09;3.00;;;2.63;;
51810;SDS011;52468;40.116;18.296;2023-05-02T09:54:41;9.23;;;2.88;;
51810;SDS011;52468;40.116;18.296;2023-05-02T09:57:09;3.67;;;2.10;;
51810;SDS011;52468;40.116;18.296;2023-05-02T09:59:40;6.20;;;3.50;;
51810;SDS011;52468;40.116;18.296;2023-05-02T10:02:19;3.83;;;2.53;;
51810;SDS011;52468;40.116;18.296;2023-05-02T10:04:47;4.13;;;2.70;;
51810;SDS011;52468;40.116;18.296;2023-05-02T10:07:16;3.47;;;2.43;;
51810;SDS011;52468;40.116;18.296;2023-05-02T10:09:44;6.13;;;3.17;;
51810;SDS011;52468;40.116;18.296;2023-05-02T10:12:14;9.83;;;4.10;;
51810;SDS011;52468;40.116;18.296;2023-05-02T10:14:45;3.50;;;2.13;;
51810;SDS011;52468;40.116;18.296;2023-05-02T10:17:19;4.87;;;2.33;;
51810;SDS011;52468;40.116;18.296;2023-05-02T10:20:00;4.17;;;2.53;;
51810;SDS011;52468;40.116;18.296;2023-05-02T10:22:32;6.73;;;3.40;;
51810;SDS011;52468;40.116;18.296;2023-05-02T10:25:00;2.83;;;2.03;;
51810;SDS011;52468;40.116;18.296;2023-05-02T10:27:29;7.63;;;2.80;;
51810;SDS011;52468;40.116;18.296;2023-05-02T10:29:58;4.13;;;2.53;;
51810;SDS011;52468;40.116;18.296;2023-05-02T10:32:27;4.57;;;2.97;;
51810;SDS011;52468;40.116;18.296;2023-05-02T10:34:55;4.37;;;2.63;;
51810;SDS011;52468;40.116;18.296;2023-05-02T10:37:24;3.80;;;2.07;;
51810;SDS011;52468;40.116;18.296;2023-05-02T10:39:53;4.80;;;2.10;;
51810;SDS011;52468;40.116;18.296;2023-05-02T10:42:21;4.43;;;2.87;;
51810;SDS011;52468;40.116;18.296;2023-05-02T10:44:49;4.77;;;2.47;;
51810;SDS011;52468;40.116;18.296;2023-05-02T10:47:18;4.27;;;2.30;;
51810;SDS011;52468;40.116;18.296;2023-05-02T10:49:59;6.23;;;1.90;;
51810;SDS011;52468;40.116;18.296;2023-05-02T10:52:36;6.13;;;2.53;;
51810;SDS011;52468;40.116;18.296;2023-05-02T10:55:14;2.57;;;2.03;;
51810;SDS011;52468;40.116;18.296;2023-05-02T11:00:26;4.83;;;2.33;;
51810;SDS011;52468;40.116;18.296;2023-05-02T11:02:58;3.53;;;2.73;;
51810;SDS011;52468;40.116;18.296;2023-05-02T11:05:27;2.47;;;2.27;;
51810;SDS011;52468;40.116;18.296;2023-05-02T11:10:41;2.07;;;1.80;;
51810;SDS011;52468;40.116;18.296;2023-05-02T11:13:12;2.83;;;2.13;;
51810;SDS011;52468;40.116;18.296;2023-05-02T11:18:11;4.23;;;2.90;;
51810;SDS011;52468;40.116;18.296;2023-05-02T11:20:43;5.30;;;2.10;;
51810;SDS011;52468;40.116;18.296;2023-05-02T11:25:48;4.33;;;2.30;;
51810;SDS011;52468;40.116;18.296;2023-05-02T11:31:04;3.07;;;2.17;;
51810;SDS011;52468;40.116;18.296;2023-05-02T11:33:33;4.63;;;2.10;;
51810;SDS011;52468;40.116;18.296;2023-05-02T11:36:00;5.57;;;2.67;;
51810;SDS011;52468;40.116;18.296;2023-05-02T11:38:35;3.63;;;3.00;;
51810;SDS011;52468;40.116;18.296;2023-05-02T11:41:04;4.10;;;2.50;;
51810;SDS011;52468;40.116;18.296;2023-05-02T11:43:32;2.67;;;2.47;;
51810;SDS011;52468;40.116;18.296;2023-05-02T11:46:00;5.07;;;2.67;;
51810;SDS011;52468;40.116;18.296;2023-05-02T11:48:28;5.17;;;3.47;;
51810;SDS011;52468;40.116;18.296;2023-05-02T11:50:57;7.37;;;3.67;;
51810;SDS011;52468;40.116;18.296;2023-05-02T11:53:31;6.17;;;3.07;;
51810;SDS011;52468;40.116;18.296;2023-05-02T11:56:00;5.73;;;3.37;;
51810;SDS011;52468;40.116;18.296;2023-05-02T11:58:30;3.83;;;3.43;;
51810;SDS011;52468;40.116;18.296;2023-05-02T12:01:12;10.53;;;3.43;;
51810;SDS011;52468;40.116;18.296;2023-05-02T12:03:41;5.10;;;4.53;;
51810;SDS011;52468;40.116;18.296;2023-05-02T12:06:12;4.83;;;4.30;;
51810;SDS011;52468;40.116;18.296;2023-05-02T12:11:13;5.00;;;3.87;;
51810;SDS011;52468;40.116;18.296;2023-05-02T12:13:48;6.33;;;4.73;;
51810;SDS011;52468;40.116;18.296;2023-05-02T12:16:18;5.30;;;4.73;;
51810;SDS011;52468;40.116;18.296;2023-05-02T12:18:46;9.83;;;5.10;;
51810;SDS011;52468;40.116;18.296;2023-05-02T12:21:14;6.93;;;4.43;;
51810;SDS011;52468;40.116;18.296;2023-05-02T12:23:43;6.03;;;4.33;;
51810;SDS011;52468;40.116;18.296;2023-05-02T12:26:15;6.10;;;4.30;;
51810;SDS011;52468;40.116;18.296;2023-05-02T12:28:47;7.03;;;5.03;;
51810;SDS011;52468;40.116;18.296;2023-05-02T12:31:16;6.32;;;4.85;;
51810;SDS011;52468;40.116;18.296;2023-05-02T12:33:45;7.97;;;5.53;;
51810;SDS011;52468;40.116;18.296;2023-05-02T12:36:17;6.00;;;4.30;;
51810;SDS011;52468;40.116;18.296;2023-05-02T12:38:52;7.47;;;5.07;;
51810;SDS011;52468;40.116;18.296;2023-05-02T12:41:32;6.40;;;5.10;;
51810;SDS011;52468;40.116;18.296;2023-05-02T12:44:04;10.63;;;5.03;;
51810;SDS011;52468;40.116;18.296;2023-05-02T12:46:33;9.33;;;4.70;;
51810;SDS011;52468;40.116;18.296;2023-05-02T12:51:38;5.40;;;4.43;;
51810;SDS011;52468;40.116;18.296;2023-05-02T12:54:07;9.57;;;3.57;;
51810;SDS011;52468;40.116;18.296;2023-05-02T12:56:38;6.83;;;4.77;;
51810;SDS011;52468;40.116;18.296;2023-05-02T12:59:07;7.43;;;3.87;;
51810;SDS011;52468;40.116;18.296;2023-05-02T13:01:35;8.87;;;5.10;;
51810;SDS011;52468;40.116;18.296;2023-05-02T13:04:03;11.23;;;5.57;;
51810;SDS011;52468;40.116;18.296;2023-05-02T13:06:31;5.93;;;4.23;;
51810;SDS011;52468;40.116;18.296;2023-05-02T13:08:59;8.97;;;4.47;;
51810;SDS011;52468;40.116;18.296;2023-05-02T13:11:27;5.60;;;5.00;;
51810;SDS011;52468;40.116;18.296;2023-05-02T13:13:55;6.63;;;4.07;;
51810;SDS011;52468;40.116;18.296;2023-05-02T13:16:23;4.87;;;4.33;;
51810;SDS011;52468;40.116;18.296;2023-05-02T13:18:52;8.13;;;4.83;;
51810;SDS011;52468;40.116;18.296;2023-05-02T13:21:19;9.10;;;4.97;;
51810;SDS011;52468;40.116;18.296;2023-05-02T13:23:47;9.00;;;4.80;;
51810;SDS011;52468;40.116;18.296;2023-05-02T13:26:16;9.27;;;5.40;;
51810;SDS011;52468;40.116;18.296;2023-05-02T13:28:44;7.57;;;5.07;;
51810;SDS011;52468;40.116;18.296;2023-05-02T13:31:12;6.60;;;4.83;;
51810;SDS011;52468;40.116;18.296;2023-05-02T13:33:40;7.33;;;5.77;;
51810;SDS011;52468;40.116;18.296;2023-05-02T13:36:08;9.77;;;4.43;;
51810;SDS011;52468;40.116;18.296;2023-05-02T13:38:35;8.60;;;4.80;;
51810;SDS011;52468;40.116;18.296;2023-05-02T13:41:03;6.70;;;3.90;;
51810;SDS011;52468;40.116;18.296;2023-05-02T13:43:31;12.33;;;4.70;;
51810;SDS011;52468;40.116;18.296;2023-05-02T13:45:59;5.63;;;4.70;;
51810;SDS011;52468;40.116;18.296;2023-05-02T13:48:27;8.00;;;5.37;;
51810;SDS011;52468;40.116;18.296;2023-05-02T13:50:56;9.87;;;4.80;;
51810;SDS011;52468;40.116;18.296;2023-05-02T13:53:23;8.63;;;6.23;;
51810;SDS011;52468;40.116;18.296;2023-05-02T13:55:51;8.43;;;4.47;;
51810;SDS011;52468;40.116;18.296;2023-05-02T13:58:19;9.83;;;6.00;;
51810;SDS011;52468;40.116;18.296;2023-05-02T14:00:47;7.60;;;5.33;;
51810;SDS011;52468;40.116;18.296;2023-05-02T14:03:16;6.33;;;4.80;;
51810;SDS011;52468;40.116;18.296;2023-05-02T14:05:45;7.77;;;4.87;;
51810;SDS011;52468;40.116;18.296;2023-05-02T14:08:13;8.70;;;6.60;;
51810;SDS011;52468;40.116;18.296;2023-05-02T14:10:44;10.77;;;5.13;;
51810;SDS011;52468;40.116;18.296;2023-05-02T14:13:12;10.20;;;5.60;;
51810;SDS011;52468;40.116;18.296;2023-05-02T14:15:40;10.43;;;4.73;;
51810;SDS011;52468;40.116;18.296;2023-05-02T14:18:07;7.40;;;5.63;;
51810;SDS011;52468;40.116;18.296;2023-05-02T14:20:36;8.30;;;6.10;;
51810;SDS011;52468;40.116;18.296;2023-05-02T14:23:03;8.40;;;5.63;;
51810;SDS011;52468;40.116;18.296;2023-05-02T14:25:34;13.17;;;6.87;;
51810;SDS011;52468;40.116;18.296;2023-05-02T14:28:02;13.00;;;6.10;;
51810;SDS011;52468;40.116;18.296;2023-05-02T14:30:30;9.40;;;5.07;;
51810;SDS011;52468;40.116;18.296;2023-05-02T14:32:58;8.87;;;5.47;;
51810;SDS011;52468;40.116;18.296;2023-05-02T14:35:26;6.60;;;4.93;;
51810;SDS011;52468;40.116;18.296;2023-05-02T14:37:54;8.17;;;5.00;;
51810;SDS011;52468;40.116;18.296;2023-05-02T14:40:22;6.80;;;4.67;;
51810;SDS011;52468;40.116;18.296;2023-05-02T14:42:50;8.27;;;4.87;;
51810;SDS011;52468;40.116;18.296;2023-05-02T14:45:18;7.83;;;4.90;;
51810;SDS011;52468;40.116;18.296;2023-05-02T14:47:46;7.83;;;5.17;;
51810;SDS011;52468;40.116;18.296;2023-05-02T14:50:14;8.13;;;5.87;;
51810;SDS011;52468;40.116;18.296;2023-05-02T14:52:42;8.37;;;4.90;;
51810;SDS011;52468;40.116;18.296;2023-05-02T14:55:12;9.63;;;5.73;;
51810;SDS011;52468;40.116;18.296;2023-05-02T14:57:40;9.90;;;4.90;;
51810;SDS011;52468;40.116;18.296;2023-05-02T15:00:08;16.00;;;5.27;;
51810;SDS011;52468;40.116;18.296;2023-05-02T15:02:36;10.03;;;5.67;;
51810;SDS011;52468;40.116;18.296;2023-05-02T15:05:04;9.80;;;5.37;;
51810;SDS011;52468;40.116;18.296;2023-05-02T15:07:38;9.23;;;5.20;;
51810;SDS011;52468;40.116;18.296;2023-05-02T15:10:06;7.63;;;5.23;;
51810;SDS011;52468;40.116;18.296;2023-05-02T15:12:34;9.37;;;6.57;;
51810;SDS011;52468;40.116;18.296;2023-05-02T15:15:02;8.60;;;5.13;;
51810;SDS011;52468;40.116;18.296;2023-05-02T15:17:30;7.27;;;5.73;;
51810;SDS011;52468;40.116;18.296;2023-05-02T15:19:57;6.77;;;5.37;;
51810;SDS011;52468;40.116;18.296;2023-05-02T15:22:25;9.30;;;5.47;;
51810;SDS011;52468;40.116;18.296;2023-05-02T15:24:53;7.90;;;5.37;;
51810;SDS011;52468;40.116;18.296;2023-05-02T15:27:21;8.37;;;6.93;;
51810;SDS011;52468;40.116;18.296;2023-05-02T15:29:49;8.50;;;5.80;;
51810;SDS011;52468;40.116;18.296;2023-05-02T15:32:17;8.37;;;6.47;;
51810;SDS011;52468;40.116;18.296;2023-05-02T15:34:44;8.50;;;6.33;;
51810;SDS011;52468;40.116;18.296;2023-05-02T15:37:12;11.10;;;6.37;;
51810;SDS011;52468;40.116;18.296;2023-05-02T15:39:40;9.53;;;6.60;;
51810;SDS011;52468;40.116;18.296;2023-05-02T15:42:08;13.77;;;6.00;;